Time;durP1;ratioP1;P1;durP2;ratioP2;P2;SDS_P1;SDS_P2;PMS_P1;PMS_P2;Temp;Humidity;BMP_temperature;BMP_pressure;BME280_temperature;BME280_humidity;BME280_pressure;Samples;Min_cycle;Max_cycle;Signal;HPM_P1;HPM_P2
2022/01/03 00:02:17;;;;;;;17.70;2.88;;;;;;;;;;4972885;28;106273;-65
2022/01/03 00:04:44;;;;;;;18.50;2.35;;;;;;;;;;4963947;28;106498;-65
2022/01/03 00:07:11;;;;;;;25.20;2.80;;;;;;;;;;4970579;28;107333;-66
2022/01/03 00:09:38;;;;;;;16.13;2.30;;;;;;;;;;4971793;28;106017;-66
2022/01/03 00:12:05;;;;;;;17.90;2.67;;;;;;;;;;4971240;28;108086;-65
2022/01/03 00:14:31;;;;;;;22.92;2.53;;;;;;;;;;4969182;28;106293;-65
2022/01/03 00:16:58;;;;;;;27.13;3.05;;;;;;;;;;4971558;28;106763;-65
2022/01/03 00:19:24;;;;;;;30.45;3.13;;;;;;;;;;4967519;28;107269;-66
2022/01/03 00:21:53;;;;;;;24.98;3.05;;;;;;;;;;4971364;28;110236;-65
2022/01/03 00:24:24;;;;;;;23.50;3.53;;;;;;;;;;4969317;28;106549;-65
2022/01/03 00:26:55;;;;;;;26.58;3.25;;;;;;;;;;4968066;28;106970;-65
2022/01/03 00:29:22;;;;;;;26.92;3.58;;;;;;;;;;4956920;28;106265;-65
2022/01/03 00:31:50;;;;;;;30.40;3.40;;;;;;;;;;4969235;28;107476;-65
2022/01/03 00:34:17;;;;;;;28.52;3.95;;;;;;;;;;4969886;28;106663;-65
2022/01/03 00:36:49;;;;;;;37.00;3.97;;;;;;;;;;4971823;28;106744;-65
2022/01/03 00:39:15;;;;;;;25.58;2.80;;;;;;;;;;4968575;28;106645;-66
2022/01/03 00:41:42;;;;;;;34.40;4.00;;;;;;;;;;4969716;28;107757;-65
2022/01/03 00:44:09;;;;;;;33.95;4.63;;;;;;;;;;4975505;28;106503;-65
2022/01/03 00:46:36;;;;;;;25.10;3.92;;;;;;;;;;4974879;28;106881;-65
2022/01/03 00:49:03;;;;;;;27.90;4.20;;;;;;;;;;4972442;28;106686;-65
2022/01/03 00:51:30;;;;;;;35.13;4.47;;;;;;;;;;4971644;28;106508;-65
2022/01/03 00:53:56;;;;;;;30.83;3.60;;;;;;;;;;4975823;28;108001;-65
2022/01/03 00:56:28;;;;;;;36.08;4.82;;;;;;;;;;4977121;28;105976;-65
2022/01/03 00:59:00;;;;;;;47.42;4.40;;;;;;;;;;4974321;28;107102;-65
2022/01/03 01:01:26;;;;;;;39.80;4.15;;;;;;;;;;4971407;28;107677;-65
2022/01/03 01:03:54;;;;;;;26.42;3.55;;;;;;;;;;4970767;28;106567;-65
2022/01/03 01:06:22;;;;;;;31.92;4.10;;;;;;;;;;4975211;28;107141;-65
2022/01/03 01:08:56;;;;;;;38.70;5.07;;;;;;;;;;4972437;28;106518;-65
2022/01/03 01:11:25;;;;;;;32.22;3.70;;;;;;;;;;4968470;28;108075;-66
2022/01/03 01:13:51;;;;;;;30.73;4.05;;;;;;;;;;4985935;28;109326;-65
2022/01/03 01:16:18;;;;;;;37.45;5.07;;;;;;;;;;5002555;28;106238;-65
2022/01/03 01:18:49;;;;;;;31.20;4.78;;;;;;;;;;4976154;28;108040;-65
2022/01/03 01:21:16;;;;;;;24.33;4.30;;;;;;;;;;4990680;28;108841;-65
2022/01/03 01:23:43;;;;;;;27.83;3.90;;;;;;;;;;4977592;28;107640;-64
2022/01/03 01:28:58;;;;;;;38.90;4.53;;;;;;;;;;4978250;28;109216;-64
2022/01/03 01:31:26;;;;;;;31.77;4.78;;;;;;;;;;4973303;28;107263;-65
2022/01/03 01:33:54;;;;;;;33.85;3.55;;;;;;;;;;4966011;28;109136;-64
2022/01/03 01:36:26;;;;;;;30.92;4.13;;;;;;;;;;4967510;28;105906;-67
2022/01/03 01:38:55;;;;;;;27.52;3.88;;;;;;;;;;4971380;28;108070;-64
2022/01/03 01:41:22;;;;;;;32.72;3.58;;;;;;;;;;4968778;28;109705;-65
2022/01/03 01:43:55;;;;;;;32.72;4.07;;;;;;;;;;4971667;28;106402;-64
2022/01/03 01:46:22;;;;;;;47.25;4.45;;;;;;;;;;4970672;28;108408;-65
2022/01/03 01:48:54;;;;;;;32.25;3.80;;;;;;;;;;4989172;28;109186;-64
2022/01/03 01:51:23;;;;;;;37.65;4.05;;;;;;;;;;4970016;28;107047;-65
2022/01/03 01:53:54;;;;;;;34.30;3.80;;;;;;;;;;4973704;28;109490;-64
2022/01/03 01:56:26;;;;;;;29.42;4.10;;;;;;;;;;4969186;28;106372;-64
2022/01/03 01:59:10;;;;;;;37.63;4.60;;;;;;;;;;4971357;28;108541;-64
2022/01/03 02:01:37;;;;;;;33.60;4.15;;;;;;;;;;4960302;28;109315;-67
2022/01/03 02:04:12;;;;;;;39.95;4.38;;;;;;;;;;4970602;28;106715;-64
2022/01/03 02:06:46;;;;;;;30.15;3.92;;;;;;;;;;4958864;28;108736;-64
2022/01/03 02:09:18;;;;;;;39.60;3.88;;;;;;;;;;4967938;28;108950;-65
2022/01/03 02:11:55;;;;;;;29.92;3.20;;;;;;;;;;4976268;28;105795;-64
2022/01/03 02:14:35;;;;;;;30.42;3.75;;;;;;;;;;4951814;22;107461;-64
2022/01/03 02:17:02;;;;;;;37.22;4.88;;;;;;;;;;4891222;28;106601;-64
2022/01/03 02:19:29;;;;;;;24.00;3.63;;;;;;;;;;4909603;28;108246;-64
2022/01/03 02:21:56;;;;;;;40.00;4.00;;;;;;;;;;4910821;28;109262;-64
2022/01/03 02:24:30;;;;;;;38.10;4.95;;;;;;;;;;4909998;28;106586;-65
2022/01/03 02:27:00;;;;;;;30.23;4.35;;;;;;;;;;4910131;28;108355;-64
2022/01/03 02:29:26;;;;;;;33.60;3.83;;;;;;;;;;4908723;28;107095;-64
2022/01/03 02:31:52;;;;;;;37.80;4.70;;;;;;;;;;4906593;28;106353;-65
2022/01/03 02:34:19;;;;;;;32.78;3.83;;;;;;;;;;4896587;28;108785;-64
2022/01/03 02:36:47;;;;;;;32.20;4.40;;;;;;;;;;4909010;28;106156;-64
2022/01/03 02:39:13;;;;;;;38.35;3.88;;;;;;;;;;4909029;28;110280;-65
2022/01/03 02:41:40;;;;;;;44.55;5.50;;;;;;;;;;4909609;28;108160;-65
2022/01/03 02:44:07;;;;;;;33.42;3.45;;;;;;;;;;4909807;28;106078;-67
2022/01/03 02:46:33;;;;;;;47.22;5.55;;;;;;;;;;4912249;28;108024;-64
2022/01/03 02:49:03;;;;;;;45.35;4.80;;;;;;;;;;4908905;28;108809;-64
2022/01/03 02:51:29;;;;;;;41.17;5.28;;;;;;;;;;4909503;28;106958;-64
2022/01/03 02:53:56;;;;;;;45.65;4.70;;;;;;;;;;4910159;28;105887;-64
2022/01/03 02:56:22;;;;;;;33.40;4.30;;;;;;;;;;4912563;28;109025;-64
2022/01/03 02:58:49;;;;;;;42.38;5.45;;;;;;;;;;4910180;28;106954;-64
2022/01/03 03:01:15;;;;;;;29.52;3.80;;;;;;;;;;4906991;28;106532;-65
2022/01/03 03:03:47;;;;;;;37.83;4.22;;;;;;;;;;4904325;28;106788;-65
2022/01/03 03:06:13;;;;;;;45.17;5.35;;;;;;;;;;4893829;28;109079;-65
2022/01/03 03:08:40;;;;;;;39.78;3.80;;;;;;;;;;4909147;28;109337;-65
2022/01/03 03:11:06;;;;;;;30.90;4.05;;;;;;;;;;4912204;28;106778;-65
2022/01/03 03:13:33;;;;;;;32.72;4.30;;;;;;;;;;4915185;28;106836;-65
2022/01/03 03:16:03;;;;;;;32.58;4.78;;;;;;;;;;4919558;28;108075;-65
2022/01/03 03:18:30;;;;;;;43.55;5.25;;;;;;;;;;4914629;28;105587;-65
2022/01/03 03:20:58;;;;;;;30.38;3.95;;;;;;;;;;4916159;28;109967;-65
2022/01/03 03:23:24;;;;;;;34.72;4.78;;;;;;;;;;4909102;28;105986;-66
2022/01/03 03:25:53;;;;;;;35.22;3.75;;;;;;;;;;4913377;28;106799;-65
2022/01/03 03:28:24;;;;;;;31.80;3.95;;;;;;;;;;4908378;28;109195;-65
2022/01/03 03:30:54;;;;;;;31.70;4.03;;;;;;;;;;4909242;28;106897;-65
2022/01/03 03:33:30;;;;;;;38.10;4.18;;;;;;;;;;4907776;28;108426;-65
2022/01/03 03:35:59;;;;;;;40.90;5.15;;;;;;;;;;4912544;28;109398;-65
2022/01/03 03:38:27;;;;;;;33.67;3.80;;;;;;;;;;4914425;28;105686;-65
2022/01/03 03:40:55;;;;;;;38.83;4.45;;;;;;;;;;4910727;28;109585;-64
2022/01/03 03:43:22;;;;;;;34.72;4.28;;;;;;;;;;4908710;28;107213;-64
2022/01/03 03:45:49;;;;;;;39.67;4.68;;;;;;;;;;4916613;28;108905;-64
2022/01/03 03:48:19;;;;;;;39.28;4.93;;;;;;;;;;4914760;28;109056;-65
2022/01/03 03:50:47;;;;;;;44.63;4.40;;;;;;;;;;4925276;28;106487;-64
2022/01/03 03:53:16;;;;;;;51.15;5.63;;;;;;;;;;4910727;28;108476;-65
2022/01/03 03:55:44;;;;;;;41.00;6.18;;;;;;;;;;4917002;28;107328;-65
2022/01/03 03:58:13;;;;;;;44.17;5.22;;;;;;;;;;4919272;28;106520;-64
2022/01/03 04:00:40;;;;;;;51.10;4.47;;;;;;;;;;4918934;28;108304;-64
2022/01/03 04:03:27;;;;;;;39.38;5.00;;;;;;;;;;4913032;28;106826;-64
2022/01/03 04:05:54;;;;;;;30.42;4.20;;;;;;;;;;4911139;28;110716;-64
2022/01/03 04:08:20;;;;;;;44.67;5.00;;;;;;;;;;4917419;28;107114;-64
2022/01/03 04:10:46;;;;;;;32.08;4.05;;;;;;;;;;4921068;28;107565;-64
2022/01/03 04:13:13;;;;;;;40.53;4.57;;;;;;;;;;4914609;28;108355;-66
2022/01/03 04:15:39;;;;;;;35.83;4.82;;;;;;;;;;4926797;28;107578;-65
2022/01/03 04:18:07;;;;;;;40.22;5.03;;;;;;;;;;4926097;28;107322;-64
2022/01/03 04:20:33;;;;;;;37.63;4.00;;;;;;;;;;4914658;28;106816;-64
2022/01/03 04:22:59;;;;;;;38.42;3.90;;;;;;;;;;4921168;28;108753;-64
2022/01/03 04:25:26;;;;;;;52.50;6.85;;;;;;;;;;4918409;28;107428;-64
2022/01/03 04:27:53;;;;;;;41.45;5.30;;;;;;;;;;4912879;28;107452;-64
2022/01/03 04:30:20;;;;;;;43.30;4.78;;;;;;;;;;4915170;28;106538;-64
2022/01/03 04:32:47;;;;;;;47.92;5.05;;;;;;;;;;4916135;28;108618;-65
2022/01/03 04:35:14;;;;;;;44.05;5.50;;;;;;;;;;4916002;28;109084;-65
2022/01/03 04:37:40;;;;;;;39.28;5.35;;;;;;;;;;4922029;28;105970;-64
2022/01/03 04:40:07;;;;;;;45.15;5.10;;;;;;;;;;4918024;28;106621;-64
2022/01/03 04:42:33;;;;;;;45.17;5.60;;;;;;;;;;4894423;28;108989;-64
2022/01/03 04:45:02;;;;;;;34.40;3.92;;;;;;;;;;4926524;28;106823;-64
2022/01/03 04:47:28;;;;;;;40.92;4.88;;;;;;;;;;4915794;28;110162;-64
2022/01/03 04:49:55;;;;;;;36.50;4.20;;;;;;;;;;4914909;28;106638;-64
2022/01/03 04:52:21;;;;;;;40.22;4.32;;;;;;;;;;4916758;28;105905;-64
2022/01/03 04:54:48;;;;;;;51.08;4.22;;;;;;;;;;4918820;28;110126;-64
2022/01/03 04:57:15;;;;;;;48.40;5.00;;;;;;;;;;4906102;28;106050;-64
2022/01/03 04:59:42;;;;;;;44.25;5.68;;;;;;;;;;4914771;28;109007;-64
2022/01/03 05:02:08;;;;;;;44.55;5.32;;;;;;;;;;4909015;28;109490;-65
2022/01/03 05:04:35;;;;;;;41.10;4.57;;;;;;;;;;4917923;28;105950;-66
2022/01/03 05:07:03;;;;;;;35.22;4.82;;;;;;;;;;4924543;28;109701;-66
2022/01/03 05:09:29;;;;;;;47.75;5.00;;;;;;;;;;4910208;28;106273;-66
2022/01/03 05:11:56;;;;;;;39.70;4.97;;;;;;;;;;4908818;28;106562;-66
2022/01/03 05:14:23;;;;;;;36.78;4.30;;;;;;;;;;4908690;28;109182;-68
2022/01/03 05:16:52;;;;;;;35.58;4.72;;;;;;;;;;4911888;28;106529;-66
2022/01/03 05:19:20;;;;;;;32.17;3.97;;;;;;;;;;4914980;28;107994;-66
2022/01/03 05:21:47;;;;;;;35.92;3.97;;;;;;;;;;4913237;28;109160;-66
2022/01/03 05:24:19;;;;;;;32.90;3.80;;;;;;;;;;4916918;28;106217;-66
2022/01/03 05:26:46;;;;;;;37.45;4.97;;;;;;;;;;4917839;28;108220;-66
2022/01/03 05:29:15;;;;;;;30.60;4.32;;;;;;;;;;4923819;28;109084;-67
2022/01/03 05:31:46;;;;;;;34.10;3.95;;;;;;;;;;4916406;28;108108;-66
2022/01/03 05:34:13;;;;;;;38.25;4.72;;;;;;;;;;4919945;28;109327;-66
2022/01/03 05:36:39;;;;;;;41.40;5.22;;;;;;;;;;4907204;28;106677;-66
2022/01/03 05:39:06;;;;;;;31.27;3.95;;;;;;;;;;4918281;28;108749;-65
2022/01/03 05:41:32;;;;;;;38.55;4.50;;;;;;;;;;4929139;28;107050;-66
2022/01/03 05:44:00;;;;;;;34.22;4.57;;;;;;;;;;4916664;28;106777;-64
2022/01/03 05:46:27;;;;;;;31.67;4.03;;;;;;;;;;4922351;28;109585;-65
2022/01/03 05:48:54;;;;;;;43.70;5.82;;;;;;;;;;4906221;28;108515;-64
2022/01/03 05:51:20;;;;;;;48.90;4.93;;;;;;;;;;4914005;28;105722;-65
2022/01/03 05:53:47;;;;;;;37.92;4.63;;;;;;;;;;4908276;28;109458;-64
2022/01/03 05:56:13;;;;;;;37.20;5.57;;;;;;;;;;4909916;28;106007;-67
2022/01/03 05:58:40;;;;;;;28.13;3.80;;;;;;;;;;4913746;28;108903;-65
2022/01/03 06:01:07;;;;;;;28.83;3.60;;;;;;;;;;4913548;28;106300;-68
2022/01/03 06:03:37;;;;;;;48.15;5.05;;;;;;;;;;4912421;28;106025;-64
2022/01/03 06:08:38;;;;;;;38.22;3.83;;;;;;;;;;4901696;28;109699;-66
2022/01/03 06:11:05;;;;;;;43.45;4.13;;;;;;;;;;4914211;28;106381;-65
2022/01/03 06:13:33;;;;;;;35.17;4.57;;;;;;;;;;4910873;28;109170;-65
2022/01/03 06:15:59;;;;;;;40.03;4.88;;;;;;;;;;4919364;28;106833;-65
2022/01/03 06:18:28;;;;;;;24.25;3.67;;;;;;;;;;4892718;28;109503;-66
2022/01/03 06:20:59;;;;;;;35.25;4.07;;;;;;;;;;4925031;28;109728;-67
2022/01/03 06:23:31;;;;;;;40.17;5.13;;;;;;;;;;4919286;28;105948;-64
2022/01/03 06:25:57;;;;;;;27.25;3.47;;;;;;;;;;4916137;28;108218;-64
2022/01/03 06:28:35;;;;;;;31.38;3.75;;;;;;;;;;4911662;28;109250;-66
2022/01/03 06:31:03;;;;;;;42.85;4.90;;;;;;;;;;4922872;28;106604;-64
2022/01/03 06:33:29;;;;;;;33.92;4.07;;;;;;;;;;4921913;28;108533;-64
2022/01/03 06:35:56;;;;;;;40.67;4.07;;;;;;;;;;4910039;28;106267;-64
2022/01/03 06:38:23;;;;;;;33.50;4.68;;;;;;;;;;4909177;28;108514;-65
2022/01/03 06:40:50;;;;;;;45.13;5.05;;;;;;;;;;4910912;28;108995;-64
2022/01/03 06:43:16;;;;;;;38.25;5.03;;;;;;;;;;4908295;28;105681;-64
2022/01/03 06:45:43;;;;;;;29.60;3.83;;;;;;;;;;4912338;28;108403;-64
2022/01/03 06:48:10;;;;;;;29.63;3.95;;;;;;;;;;4910414;28;108902;-64
2022/01/03 06:50:38;;;;;;;38.13;3.53;;;;;;;;;;4914563;28;106228;-65
2022/01/03 06:53:05;;;;;;;31.63;4.28;;;;;;;;;;4914351;28;109280;-64
2022/01/03 06:55:33;;;;;;;33.22;3.95;;;;;;;;;;4928169;28;109029;-65
2022/01/03 06:58:00;;;;;;;27.10;3.67;;;;;;;;;;4898969;28;108939;-66
2022/01/03 07:00:27;;;;;;;34.17;3.85;;;;;;;;;;4912357;28;108773;-64
2022/01/03 07:02:54;;;;;;;32.67;3.97;;;;;;;;;;4908747;28;106337;-64
2022/01/03 07:05:20;;;;;;;23.33;2.88;;;;;;;;;;4912947;28;106532;-64
2022/01/03 07:07:46;;;;;;;31.48;4.20;;;;;;;;;;4912341;28;106404;-64
2022/01/03 07:10:15;;;;;;;33.08;3.55;;;;;;;;;;4910098;28;107328;-65
2022/01/03 07:12:42;;;;;;;26.60;3.70;;;;;;;;;;4907949;28;107323;-64
2022/01/03 07:20:39;;;;;;;27.65;4.03;;;;;;;;;;4906453;28;107304;-65
2022/01/03 07:23:05;;;;;;;27.50;3.55;;;;;;;;;;4903358;28;106061;-64
2022/01/03 07:25:31;;;;;;;30.52;4.00;;;;;;;;;;4905411;28;107931;-64
2022/01/03 07:27:58;;;;;;;25.98;4.53;;;;;;;;;;4909448;28;107587;-64
2022/01/03 07:30:24;;;;;;;28.65;3.90;;;;;;;;;;4903029;28;105667;-65
2022/01/03 07:32:53;;;;;;;32.40;4.60;;;;;;;;;;4905419;28;106422;-65
2022/01/03 07:35:19;;;;;;;27.17;3.55;;;;;;;;;;4907518;28;108526;-64
2022/01/03 07:37:46;;;;;;;34.83;5.03;;;;;;;;;;4897227;28;106177;-64
2022/01/03 07:40:12;;;;;;;26.10;3.35;;;;;;;;;;4908739;28;108717;-64
2022/01/03 07:42:40;;;;;;;31.23;3.72;;;;;;;;;;4908861;28;106732;-65
2022/01/03 07:45:07;;;;;;;33.17;3.72;;;;;;;;;;4903252;28;108869;-66
2022/01/03 07:47:34;;;;;;;31.95;3.58;;;;;;;;;;4908114;28;108022;-64
2022/01/03 07:50:00;;;;;;;26.30;3.65;;;;;;;;;;4908684;28;106467;-64
2022/01/03 07:52:27;;;;;;;29.33;3.78;;;;;;;;;;4908715;28;106420;-64
2022/01/03 07:54:53;;;;;;;26.08;3.45;;;;;;;;;;4902741;28;107438;-64
2022/01/03 07:57:19;;;;;;;32.78;3.80;;;;;;;;;;4903872;28;107819;-66
2022/01/03 07:59:46;;;;;;;29.20;3.28;;;;;;;;;;4905970;28;107450;-68
2022/01/03 08:02:13;;;;;;;28.85;3.88;;;;;;;;;;4900648;28;106616;-67
2022/01/03 08:04:39;;;;;;;32.78;3.63;;;;;;;;;;4904769;28;106110;-66
2022/01/03 08:07:06;;;;;;;30.58;3.85;;;;;;;;;;4908367;28;106522;-65
2022/01/03 08:09:32;;;;;;;31.02;3.70;;;;;;;;;;4912217;28;106130;-65
2022/01/03 08:12:00;;;;;;;30.70;4.38;;;;;;;;;;4913585;28;105898;-66
2022/01/03 08:14:26;;;;;;;23.73;3.83;;;;;;;;;;4913757;28;107600;-71
2022/01/03 08:16:53;;;;;;;30.40;3.75;;;;;;;;;;4907394;28;106524;-66
2022/01/03 08:19:20;;;;;;;30.08;4.53;;;;;;;;;;4905152;28;107544;-67
2022/01/03 08:21:46;;;;;;;27.33;4.38;;;;;;;;;;4913134;28;106716;-65
2022/01/03 08:24:13;;;;;;;22.63;3.78;;;;;;;;;;4901747;28;107335;-66
2022/01/03 08:26:39;;;;;;;46.25;5.05;;;;;;;;;;4902194;28;107721;-66
2022/01/03 08:29:05;;;;;;;32.40;4.13;;;;;;;;;;4908813;28;106647;-66
2022/01/03 08:31:32;;;;;;;35.22;4.22;;;;;;;;;;4907469;28;108284;-66
2022/01/03 08:33:58;;;;;;;29.67;4.45;;;;;;;;;;4907862;28;107474;-66
2022/01/03 08:36:24;;;;;;;28.42;4.38;;;;;;;;;;4903244;28;108003;-66
2022/01/03 08:38:51;;;;;;;39.22;4.45;;;;;;;;;;4903343;28;107239;-65
2022/01/03 08:41:17;;;;;;;35.50;4.22;;;;;;;;;;4901744;28;109319;-66
2022/01/03 08:43:44;;;;;;;32.47;3.83;;;;;;;;;;4912273;28;106481;-66
2022/01/03 08:46:10;;;;;;;27.15;3.25;;;;;;;;;;4908814;28;109285;-66
2022/01/03 08:48:36;;;;;;;29.77;3.47;;;;;;;;;;4903907;28;106809;-66
2022/01/03 08:51:03;;;;;;;37.38;4.60;;;;;;;;;;4906671;28;106605;-66
2022/01/03 08:53:31;;;;;;;31.85;4.03;;;;;;;;;;4903111;28;107369;-65
2022/01/03 08:55:58;;;;;;;30.30;3.65;;;;;;;;;;4910316;28;105942;-66
2022/01/03 08:58:25;;;;;;;34.60;4.95;;;;;;;;;;4913909;28;105823;-67
2022/01/03 09:00:51;;;;;;;24.27;4.22;;;;;;;;;;4909660;28;106933;-68
2022/01/03 09:03:18;;;;;;;34.40;3.80;;;;;;;;;;4917724;28;107666;-65
2022/01/03 09:05:45;;;;;;;31.77;3.45;;;;;;;;;;4925055;28;107285;-65
2022/01/03 09:08:12;;;;;;;27.55;3.97;;;;;;;;;;4903144;28;107603;-64
2022/01/03 09:10:38;;;;;;;39.63;4.57;;;;;;;;;;4908847;28;107582;-67
2022/01/03 09:13:05;;;;;;;28.42;3.85;;;;;;;;;;4912401;28;107485;-65
2022/01/03 09:15:31;;;;;;;31.58;3.58;;;;;;;;;;4911892;28;106575;-66
2022/01/03 09:17:58;;;;;;;32.28;3.80;;;;;;;;;;4908274;28;107223;-65
2022/01/03 09:20:24;;;;;;;33.72;3.42;;;;;;;;;;4909076;28;107332;-66
2022/01/03 09:22:56;;;;;;;35.50;4.40;;;;;;;;;;4906296;28;106371;-66
2022/01/03 09:30:53;;;;;;;26.95;3.35;;;;;;;;;;4910565;28;107484;-65
2022/01/03 09:33:20;;;;;;;32.88;4.57;;;;;;;;;;4898817;28;111177;-66
2022/01/03 09:35:51;;;;;;;28.38;3.65;;;;;;;;;;4908236;28;106237;-65
2022/01/03 09:38:17;;;;;;;36.55;3.88;;;;;;;;;;4904369;28;106100;-66
2022/01/03 09:40:45;;;;;;;31.08;3.85;;;;;;;;;;4910084;28;107224;-66
2022/01/03 09:43:14;;;;;;;29.73;4.45;;;;;;;;;;4912097;28;107477;-65
2022/01/03 09:45:41;;;;;;;26.90;3.85;;;;;;;;;;4909653;28;106277;-66
2022/01/03 09:48:11;;;;;;;22.67;3.37;;;;;;;;;;4902670;28;108694;-65
2022/01/03 09:50:38;;;;;;;40.20;4.13;;;;;;;;;;4908441;28;105832;-65
2022/01/03 09:53:05;;;;;;;28.60;3.50;;;;;;;;;;4904149;28;107288;-66
2022/01/03 09:55:31;;;;;;;22.70;3.15;;;;;;;;;;4907864;28;106800;-66
2022/01/03 09:57:58;;;;;;;27.67;4.72;;;;;;;;;;4906726;28;108204;-66
2022/01/03 10:00:26;;;;;;;28.83;3.97;;;;;;;;;;4905342;28;107984;-66
2022/01/03 10:02:53;;;;;;;26.30;3.15;;;;;;;;;;4905863;28;106081;-65
2022/01/03 10:05:20;;;;;;;31.90;3.88;;;;;;;;;;4909211;28;106216;-65
2022/01/03 10:07:48;;;;;;;29.83;3.28;;;;;;;;;;4902737;28;107562;-66
2022/01/03 10:10:15;;;;;;;36.03;3.53;;;;;;;;;;4907299;28;108211;-65
2022/01/03 10:12:41;;;;;;;39.13;4.00;;;;;;;;;;4905831;28;106211;-66
2022/01/03 10:15:08;;;;;;;29.75;4.00;;;;;;;;;;4907931;28;106153;-68
2022/01/03 10:17:39;;;;;;;35.47;3.92;;;;;;;;;;4902415;28;106735;-65
2022/01/03 10:20:08;;;;;;;31.33;4.15;;;;;;;;;;4904479;28;107459;-65
2022/01/03 10:22:35;;;;;;;30.37;4.07;;;;;;;;;;4907804;28;107639;-65
2022/01/03 10:25:08;;;;;;;26.02;3.55;;;;;;;;;;4905417;28;107385;-65
2022/01/03 10:27:50;;;;;;;41.95;4.55;;;;;;;;;;4910655;28;107255;-65
2022/01/03 10:30:28;;;;;;;40.30;4.15;;;;;;;;;;4905136;28;106330;-65
2022/01/03 10:32:55;;;;;;;35.03;4.47;;;;;;;;;;4907115;28;108571;-65
2022/01/03 10:35:21;;;;;;;25.58;3.25;;;;;;;;;;4907888;28;106999;-65
2022/01/03 10:37:49;;;;;;;32.97;4.13;;;;;;;;;;4907108;28;109085;-65
2022/01/03 10:40:20;;;;;;;30.35;3.67;;;;;;;;;;4906612;28;106589;-65
2022/01/03 10:42:47;;;;;;;28.15;4.00;;;;;;;;;;4906045;28;106136;-66
2022/01/03 10:45:14;;;;;;;30.13;4.72;;;;;;;;;;4908266;28;106161;-67
2022/01/03 10:47:42;;;;;;;39.60;4.32;;;;;;;;;;4903309;28;106842;-65
2022/01/03 10:50:12;;;;;;;38.33;4.55;;;;;;;;;;4906780;28;106400;-66
2022/01/03 10:52:41;;;;;;;30.90;4.82;;;;;;;;;;4903615;28;106987;-65
2022/01/03 10:55:22;;;;;;;33.00;4.70;;;;;;;;;;4903517;28;106985;-67
2022/01/03 10:57:52;;;;;;;26.80;4.28;;;;;;;;;;4901307;28;107010;-65
2022/01/03 11:00:18;;;;;;;;;;;;;;;;;;4901575;28;109154;-64
2022/01/03 11:03:13;;;;;;;21.83;3.25;;;;;;;;;;4900170;28;106547;-65
2022/01/03 11:05:42;;;;;;;35.50;4.50;;;;;;;;;;4903818;28;107536;-65
2022/01/03 11:10:44;;;;;;;27.73;4.05;;;;;;;;;;4903538;28;106369;-66
2022/01/03 11:13:20;;;;;;;35.45;4.60;;;;;;;;;;4903525;28;105964;-65
2022/01/03 11:15:55;;;;;;;34.00;4.15;;;;;;;;;;4906557;28;107324;-64
2022/01/03 11:18:24;;;;;;;31.25;3.88;;;;;;;;;;4909407;28;106964;-65
2022/01/03 11:21:17;;;;;;;38.03;4.57;;;;;;;;;;4905068;28;107441;-65
2022/01/03 11:23:45;;;;;;;30.15;4.07;;;;;;;;;;4904797;28;106300;-64
2022/01/03 11:26:12;;;;;;;33.28;4.68;;;;;;;;;;4903749;28;106645;-63
2022/01/03 11:28:42;;;;;;;26.10;4.78;;;;;;;;;;4905731;28;107046;-68
2022/01/03 11:31:08;;;;;;;;;;;;;;;;;;4903980;28;107010;-65
2022/01/03 11:33:35;;;;;;;32.38;3.50;;;;;;;;;;4906347;28;128052;-64
2022/01/03 11:36:24;;;;;;;30.50;3.63;;;;;;;;;;4903347;28;107767;-66
2022/01/03 11:38:53;;;;;;;24.67;4.50;;;;;;;;;;4901269;28;106286;-64
2022/01/03 11:41:20;;;;;;;24.73;3.80;;;;;;;;;;4908109;28;106971;-64
2022/01/03 11:43:46;;;;;;;24.02;4.25;;;;;;;;;;4909237;28;106321;-65
2022/01/03 11:46:13;;;;;;;27.80;4.18;;;;;;;;;;4907897;28;107172;-66
2022/01/03 11:48:39;;;;;;;36.13;4.10;;;;;;;;;;4904825;28;108049;-63
2022/01/03 11:51:07;;;;;;;33.80;4.13;;;;;;;;;;4908680;28;106234;-65
2022/01/03 11:53:35;;;;;;;38.25;4.18;;;;;;;;;;4906922;28;109008;-64
2022/01/03 11:56:03;;;;;;;26.65;4.18;;;;;;;;;;4907090;28;107437;-64
2022/01/03 11:58:52;;;;;;;34.10;4.22;;;;;;;;;;4907836;28;106108;-64
2022/01/03 12:04:12;;;;;;;32.72;4.00;;;;;;;;;;4908415;28;107468;-65
2022/01/03 12:06:39;;;;;;;32.03;5.25;;;;;;;;;;4900153;28;106804;-65
2022/01/03 12:09:05;;;;;;;36.97;4.57;;;;;;;;;;4911770;28;106179;-65
2022/01/03 12:11:31;;;;;;;30.75;4.05;;;;;;;;;;4911279;28;106359;-65
2022/01/03 12:14:05;;;;;;;35.83;4.70;;;;;;;;;;4913648;28;109138;-65
2022/01/03 12:16:39;;;;;;;33.72;4.90;;;;;;;;;;4913140;28;108016;-65
2022/01/03 12:19:07;;;;;;;34.72;5.70;;;;;;;;;;4911958;28;105873;-65
2022/01/03 12:21:48;;;;;;;33.58;5.47;;;;;;;;;;4913861;28;108359;-65
2022/01/03 12:24:27;;;;;;;40.60;5.30;;;;;;;;;;4921318;28;108058;-65
2022/01/03 12:27:10;;;;;;;31.00;4.88;;;;;;;;;;4895774;28;107173;-65
2022/01/03 12:29:57;;;;;;;29.70;5.47;;;;;;;;;;4910990;28;106406;-64
2022/01/03 12:32:28;;;;;;;37.63;5.68;;;;;;;;;;4911173;28;105970;-65
2022/01/03 12:35:13;;;;;;;36.28;5.38;;;;;;;;;;4910773;28;105992;-64
2022/01/03 12:37:39;;;;;;;27.60;4.45;;;;;;;;;;4913065;28;107656;-65
2022/01/03 12:40:05;;;;;;;24.02;3.67;;;;;;;;;;4905969;28;107398;-64
2022/01/03 12:42:53;;;;;;;29.88;4.28;;;;;;;;;;4917203;28;106537;-64
2022/01/03 12:45:29;;;;;;;27.02;3.75;;;;;;;;;;4908457;28;106303;-64
2022/01/03 12:48:08;;;;;;;26.15;3.38;;;;;;;;;;4912034;28;105915;-64
2022/01/03 12:50:39;;;;;;;24.90;4.93;;;;;;;;;;4918589;28;107707;-65
2022/01/03 12:53:10;;;;;;;30.15;3.83;;;;;;;;;;4916702;28;105662;-65
2022/01/03 12:55:36;;;;;;;24.00;3.90;;;;;;;;;;4911147;28;107688;-65
2022/01/03 12:58:14;;;;;;;20.77;3.55;;;;;;;;;;4907202;28;106387;-65
2022/01/03 13:00:42;;;;;;;26.73;3.67;;;;;;;;;;4906976;28;106883;-64
2022/01/03 13:03:21;;;;;;;24.15;3.13;;;;;;;;;;4903206;28;107164;-65
2022/01/03 13:05:48;;;;;;;;;;;;;;;;;;4902905;28;108038;-64
2022/01/03 13:08:14;;;;;;;21.02;3.08;;;;;;;;;;4925906;28;124009;-66
2022/01/03 13:10:41;;;;;;;18.30;3.20;;;;;;;;;;4920753;28;106047;-64
2022/01/03 13:13:22;;;;;;;28.17;4.72;;;;;;;;;;4916481;28;107313;-67
2022/01/03 13:15:49;;;;;;;19.35;3.47;;;;;;;;;;4906949;28;106970;-65
2022/01/03 13:18:15;;;;;;;21.95;3.10;;;;;;;;;;4891318;28;109766;-64
2022/01/03 13:20:53;;;;;;;20.50;3.20;;;;;;;;;;4908876;28;107163;-65
2022/01/03 13:23:19;;;;;;;25.35;3.60;;;;;;;;;;4905093;28;106461;-65
2022/01/03 13:25:46;;;;;;;22.15;2.92;;;;;;;;;;4913886;28;106857;-65
2022/01/03 13:28:12;;;;;;;18.30;3.42;;;;;;;;;;4910757;28;106623;-65
2022/01/03 13:30:38;;;;;;;26.48;3.20;;;;;;;;;;4910944;28;106148;-66
2022/01/03 13:33:05;;;;;;;19.85;3.15;;;;;;;;;;4911805;28;107888;-65
2022/01/03 13:35:31;;;;;;;21.45;3.05;;;;;;;;;;4904034;28;108692;-65
2022/01/03 13:37:57;;;;;;;21.83;3.05;;;;;;;;;;4904967;28;106442;-64
2022/01/03 13:40:24;;;;;;;17.40;2.75;;;;;;;;;;4921361;28;106392;-65
2022/01/03 13:43:06;;;;;;;22.17;3.20;;;;;;;;;;4915231;28;106807;-65
2022/01/03 13:51:06;;;;;;;18.50;3.10;;;;;;;;;;4912863;28;106759;-65
2022/01/03 13:53:33;;;;;;;19.95;3.50;;;;;;;;;;4904382;28;107581;-65
2022/01/03 13:55:59;;;;;;;23.52;3.00;;;;;;;;;;4919222;28;105996;-65
2022/01/03 13:58:26;;;;;;;27.35;2.75;;;;;;;;;;4905557;28;107927;-65
2022/01/03 14:00:56;;;;;;;18.02;2.47;;;;;;;;;;4908351;28;107469;-64
2022/01/03 14:03:24;;;;;;;26.58;3.28;;;;;;;;;;4910244;28;106981;-64
2022/01/03 14:05:51;;;;;;;18.10;2.60;;;;;;;;;;4910356;28;107251;-64
2022/01/03 14:08:21;;;;;;;21.25;2.72;;;;;;;;;;4908995;28;106032;-64
2022/01/03 14:10:48;;;;;;;17.33;2.17;;;;;;;;;;4908167;28;107184;-65
2022/01/03 14:13:16;;;;;;;17.30;2.95;;;;;;;;;;4906538;28;106540;-66
2022/01/03 14:16:05;;;;;;;16.23;2.70;;;;;;;;;;4905606;28;106440;-65
2022/01/03 14:18:32;;;;;;;;;;;;;;;;;;4908586;28;109300;-65
2022/01/03 14:21:09;;;;;;;11.95;2.53;;;;;;;;;;4908518;28;122651;-65
2022/01/03 14:23:39;;;;;;;20.73;2.55;;;;;;;;;;4909515;28;106845;-65
2022/01/03 14:26:09;;;;;;;16.63;2.50;;;;;;;;;;4904408;28;108038;-65
2022/01/03 14:29:10;;;;;;;14.67;1.93;;;;;;;;;;4907733;28;106422;-66
2022/01/03 14:31:43;;;;;;;17.02;2.88;;;;;;;;;;4904154;28;106713;-65
2022/01/03 14:34:10;;;;;;;18.75;2.38;;;;;;;;;;4908091;28;106464;-65
2022/01/03 14:36:40;;;;;;;15.73;2.38;;;;;;;;;;4906793;28;107202;-64
2022/01/03 14:39:06;;;;;;;12.40;2.13;;;;;;;;;;4910290;28;107286;-65
2022/01/03 14:41:33;;;;;;;13.40;1.85;;;;;;;;;;4907507;28;106395;-65
2022/01/03 14:44:03;;;;;;;8.50;2.17;;;;;;;;;;4901223;28;106060;-65
2022/01/03 14:46:31;;;;;;;16.05;2.38;;;;;;;;;;4907267;28;107195;-64
2022/01/03 14:48:59;;;;;;;14.20;2.00;;;;;;;;;;4910449;28;106053;-65
2022/01/03 14:51:33;;;;;;;10.95;2.28;;;;;;;;;;4916145;28;106315;-65
2022/01/03 14:54:12;;;;;;;10.90;1.90;;;;;;;;;;4914498;28;107704;-65
2022/01/03 14:56:39;;;;;;;15.80;2.33;;;;;;;;;;4914195;28;106830;-65